logo meteoveneto

Diretta Meteo Olbia-Costa Smeralda, Italiasabato 20 aprile ore 08:50

Mappa
Sereno 16 °C Poco Nuvoloso 24 Ore: T.min 11 T.max 19
Ponente Ovest/Sud-Ovest Km/h 29.6 Punto di rugiada: 9 °C Umidità: 63% Visibilità: 10 Km
Il sole sorge alle: 06:33 Il sole tramonta alle: 20:08
20 Aprile 2024 08:50 tempo osservato: Poco Nuvoloso Poco Nuvoloso 16 63 1009 vento: Nord O/SO 29.6
20 Aprile 2024 08:20 tempo osservato: Sereno Sereno 16 63 1009 vento: Nord SO 35.2
20 Aprile 2024 07:50 tempo osservato: Sereno Sereno 15 67 1009 vento: Nord O/SO 37
20 Aprile 2024 07:20 tempo osservato: Poco Nuvoloso Poco Nuvoloso 14 71 1010 vento: Nord O/SO 37
20 Aprile 2024 06:50 tempo osservato: Sereno Sereno 13 71 1010 vento: Nord O/SO 31.5
20 Aprile 2024 06:20 tempo osservato: Sereno Sereno 13 71 1010 vento: Nord SO 27.8
20 Aprile 2024 05:50 tempo osservato: Sereno Sereno 13 66 1010 vento: Nord SO 35.2
20 Aprile 2024 05:20 tempo osservato: Sereno Sereno 15 51 1010 vento: Nord O/SO 37
20 Aprile 2024 04:50 tempo osservato: Sereno Sereno 15 51 1010 vento: Nord O 44.4
20 Aprile 2024 04:20 tempo osservato: Sereno Sereno 13 54 1010 vento: Nord O/SO 31.5
20 Aprile 2024 03:50 tempo osservato: Sereno Sereno 12 66 1011 vento: Nord O/SO 29.6
20 Aprile 2024 03:20 tempo osservato: Sereno Sereno 12 71 1011 vento: Nord O/SO 29.6
20 Aprile 2024 02:50 tempo osservato: Sereno Sereno 12 71 1012 vento: Nord SO 29.6
20 Aprile 2024 02:20 tempo osservato: Sereno Sereno 12 71 1013 vento: Nord SO 33.3
20 Aprile 2024 01:50 tempo osservato: Sereno Sereno 12 71 1013 vento: Nord SO 33.3
20 Aprile 2024 01:20 tempo osservato: Sereno Sereno 12 71 1014 vento: Nord SO 37
20 Aprile 2024 00:50 tempo osservato: Sereno Sereno 12 71 1014 vento: Nord SO 33.3
20 Aprile 2024 00:20 tempo osservato: Sereno Sereno 12 71 1014 vento: Nord O/SO 33.3
19 Aprile 2024 23:50 tempo osservato: Sereno Sereno 12 71 1014 vento: Nord O/SO 27.8
19 Aprile 2024 23:20 tempo osservato: Sereno Sereno 12 66 1015 vento: Nord O/SO 22.2
19 Aprile 2024 22:50 tempo osservato: Sereno Sereno 13 54 1015 vento: Nord O/SO 22.2
19 Aprile 2024 22:20 tempo osservato: Sereno Sereno 12 54 1015 vento: Nord O/SO 11.1
19 Aprile 2024 21:50 tempo osservato: Sereno Sereno 11 57 1015 vento: Nord O/SO 11.1
19 Aprile 2024 21:20 tempo osservato: Sereno Sereno 12 54 1015 vento: Nord O/SO 11.1
19 Aprile 2024 20:50 tempo osservato: Sereno Sereno 14 47 1015 vento: Nord O/SO 18.5
19 Aprile 2024 20:20 tempo osservato: Sereno Sereno 15 41 1015 vento: Nord O 24
19 Aprile 2024 19:50 tempo osservato: Sereno Sereno 16 38 1015 vento: Nord O/SO 16.7
19 Aprile 2024 19:20 tempo osservato: Sereno Sereno 17 29 1015 vento: Nord O 25.9
19 Aprile 2024 18:50 tempo osservato: Sereno Sereno 17 31 1016 vento: Nord O 25.9
19 Aprile 2024 18:20 tempo osservato: Sereno Sereno 18 34 1016 vento: Nord O 25.9
19 Aprile 2024 17:50 tempo osservato: Sereno Sereno 19 29 1016 vento: Nord O 25.9
19 Aprile 2024 17:20 tempo osservato: Sereno Sereno 19 25 1015 vento: Nord O 24
19 Aprile 2024 16:50 tempo osservato: Poco Nuvoloso Poco Nuvoloso 18 42 1016 vento: Nord E 20.3
19 Aprile 2024 16:20 tempo osservato: Nuvoloso Nuvoloso 17 41 1016 vento: Nord E 24
19 Aprile 2024 15:50 tempo osservato: Poco Nuvoloso Poco Nuvoloso 18 42 1016 vento: Nord E/NE 20.3
19 Aprile 2024 15:20 tempo osservato: Poco Nuvoloso Poco Nuvoloso 19 37 1016 vento: Nord N/NE 18.5
19 Aprile 2024 14:50 tempo osservato: Poco Nuvoloso Poco Nuvoloso 19 34 1016 vento: Nord N/NE 16.7
19 Aprile 2024 14:20 tempo osservato: Poco Nuvoloso Poco Nuvoloso 19 34 1017 vento: Nord N 11.1
19 Aprile 2024 13:50 tempo osservato: Poco Nuvoloso Poco Nuvoloso 19 34 1017 vento: Nord N 16.7
19 Aprile 2024 13:20 tempo osservato: Poco Nuvoloso Poco Nuvoloso 18 36 1017 vento: Nord N/NO 18.5
19 Aprile 2024 12:50 tempo osservato: Poco Nuvoloso Poco Nuvoloso 18 36 1017 vento: Nord N 18.5
19 Aprile 2024 12:20 tempo osservato: Poco Nuvoloso Poco Nuvoloso 18 36 1017 vento: Nord N 24
19 Aprile 2024 11:50 tempo osservato: Poco Nuvoloso Poco Nuvoloso 17 36 1017 vento: Nord N 27.8
19 Aprile 2024 11:20 tempo osservato: Nuvoloso Nuvoloso 16 44 1017 vento: Nord N/NO 25.9
19 Aprile 2024 10:50 tempo osservato: Nuvoloso Nuvoloso 16 44 1017 vento: Nord N/NO 25.9
19 Aprile 2024 10:20 tempo osservato: Poco Nuvoloso Poco Nuvoloso 16 47 1017 vento: Nord N/NO 27.8
19 Aprile 2024 09:50 tempo osservato: Poco Nuvoloso Poco Nuvoloso 16 51 1017 vento: Nord N/NO 25.9